sensor_id;sensor_type;location;lat;lon;timestamp;temperature;humidity
4757;DHT22;2392;52.578;13.426;2023-07-31T00:02:06;15.50;99.90
4757;DHT22;2392;52.578;13.426;2023-07-31T00:04:33;15.50;99.90
4757;DHT22;2392;52.578;13.426;2023-07-31T00:07:00;15.50;99.90
4757;DHT22;2392;52.578;13.426;2023-07-31T00:09:29;15.40;99.90
4757;DHT22;2392;52.578;13.426;2023-07-31T00:11:58;15.40;99.90
4757;DHT22;2392;52.578;13.426;2023-07-31T00:14:25;15.40;99.90
4757;DHT22;2392;52.578;13.426;2023-07-31T00:16:52;15.40;99.90
4757;DHT22;2392;52.578;13.426;2023-07-31T00:19:19;15.40;99.90
4757;DHT22;2392;52.578;13.426;2023-07-31T00:21:46;15.40;99.90
4757;DHT22;2392;52.578;13.426;2023-07-31T00:24:13;15.40;99.90
4757;DHT22;2392;52.578;13.426;2023-07-31T00:26:40;15.40;99.90
4757;DHT22;2392;52.578;13.426;2023-07-31T00:29:08;15.40;99.90
4757;DHT22;2392;52.578;13.426;2023-07-31T00:31:36;15.40;99.90
4757;DHT22;2392;52.578;13.426;2023-07-31T00:34:03;15.40;99.90
4757;DHT22;2392;52.578;13.426;2023-07-31T00:36:30;15.50;99.90
4757;DHT22;2392;52.578;13.426;2023-07-31T00:38:57;15.40;99.90
4757;DHT22;2392;52.578;13.426;2023-07-31T00:41:25;15.50;99.90
4757;DHT22;2392;52.578;13.426;2023-07-31T00:43:53;15.50;99.90
4757;DHT22;2392;52.578;13.426;2023-07-31T00:46:21;15.50;99.90
4757;DHT22;2392;52.578;13.426;2023-07-31T00:48:49;15.50;99.90
4757;DHT22;2392;52.578;13.426;2023-07-31T00:51:17;15.50;99.90
4757;DHT22;2392;52.578;13.426;2023-07-31T00:53:45;15.50;99.90
4757;DHT22;2392;52.578;13.426;2023-07-31T00:56:13;15.60;99.90
4757;DHT22;2392;52.578;13.426;2023-07-31T00:58:40;15.60;99.90
4757;DHT22;2392;52.578;13.426;2023-07-31T01:01:07;15.60;99.90
4757;DHT22;2392;52.578;13.426;2023-07-31T01:03:36;15.60;99.90
4757;DHT22;2392;52.578;13.426;2023-07-31T01:06:10;15.60;99.90
4757;DHT22;2392;52.578;13.426;2023-07-31T01:08:44;15.60;99.90
4757;DHT22;2392;52.578;13.426;2023-07-31T01:11:16;15.60;99.90
4757;DHT22;2392;52.578;13.426;2023-07-31T01:13:44;15.70;99.90
4757;DHT22;2392;52.578;13.426;2023-07-31T01:16:12;15.70;99.90
4757;DHT22;2392;52.578;13.426;2023-07-31T01:18:40;15.70;99.90
4757;DHT22;2392;52.578;13.426;2023-07-31T01:21:21;15.70;99.90
4757;DHT22;2392;52.578;13.426;2023-07-31T01:24:17;15.70;99.90
4757;DHT22;2392;52.578;13.426;2023-07-31T01:26:50;15.70;99.90
4757;DHT22;2392;52.578;13.426;2023-07-31T01:29:24;15.70;99.90
4757;DHT22;2392;52.578;13.426;2023-07-31T01:31:53;15.70;99.90
4757;DHT22;2392;52.578;13.426;2023-07-31T01:34:22;15.70;99.90
4757;DHT22;2392;52.578;13.426;2023-07-31T01:36:49;15.70;99.90
4757;DHT22;2392;52.578;13.426;2023-07-31T01:39:16;15.70;99.90
4757;DHT22;2392;52.578;13.426;2023-07-31T01:41:43;15.70;99.90
4757;DHT22;2392;52.578;13.426;2023-07-31T01:44:11;15.70;99.90
4757;DHT22;2392;52.578;13.426;2023-07-31T01:46:38;15.70;99.90
4757;DHT22;2392;52.578;13.426;2023-07-31T01:49:06;15.80;99.90
4757;DHT22;2392;52.578;13.426;2023-07-31T01:51:33;15.70;99.90
4757;DHT22;2392;52.578;13.426;2023-07-31T01:54:01;15.80;99.90
4757;DHT22;2392;52.578;13.426;2023-07-31T01:56:28;15.80;99.90
4757;DHT22;2392;52.578;13.426;2023-07-31T01:58:55;15.80;99.90
4757;DHT22;2392;52.578;13.426;2023-07-31T02:01:23;15.80;99.90
4757;DHT22;2392;52.578;13.426;2023-07-31T02:03:50;15.80;99.90
4757;DHT22;2392;52.578;13.426;2023-07-31T02:06:18;15.80;99.90
4757;DHT22;2392;52.578;13.426;2023-07-31T02:08:45;15.90;99.90
4757;DHT22;2392;52.578;13.426;2023-07-31T02:11:12;15.90;99.90
4757;DHT22;2392;52.578;13.426;2023-07-31T02:13:39;15.90;99.90
4757;DHT22;2392;52.578;13.426;2023-07-31T02:16:06;16.00;99.90
4757;DHT22;2392;52.578;13.426;2023-07-31T02:18:34;16.10;99.90
4757;DHT22;2392;52.578;13.426;2023-07-31T02:21:02;16.10;99.90
4757;DHT22;2392;52.578;13.426;2023-07-31T02:23:29;16.10;99.90
4757;DHT22;2392;52.578;13.426;2023-07-31T02:25:56;16.20;99.90
4757;DHT22;2392;52.578;13.426;2023-07-31T02:28:23;16.20;99.90
4757;DHT22;2392;52.578;13.426;2023-07-31T02:30:50;16.30;99.90
4757;DHT22;2392;52.578;13.426;2023-07-31T02:33:17;16.30;99.90
4757;DHT22;2392;52.578;13.426;2023-07-31T02:35:47;16.20;99.90
4757;DHT22;2392;52.578;13.426;2023-07-31T02:38:14;16.20;99.90
4757;DHT22;2392;52.578;13.426;2023-07-31T02:40:41;16.20;99.90
4757;DHT22;2392;52.578;13.426;2023-07-31T02:43:08;16.10;99.90
4757;DHT22;2392;52.578;13.426;2023-07-31T02:45:36;16.10;99.90
4757;DHT22;2392;52.578;13.426;2023-07-31T02:48:03;16.00;99.90
4757;DHT22;2392;52.578;13.426;2023-07-31T02:50:31;16.10;99.90
4757;DHT22;2392;52.578;13.426;2023-07-31T02:53:00;16.10;99.90
4757;DHT22;2392;52.578;13.426;2023-07-31T02:55:27;16.10;99.90
4757;DHT22;2392;52.578;13.426;2023-07-31T02:57:54;16.10;99.90
4757;DHT22;2392;52.578;13.426;2023-07-31T03:00:21;16.20;99.90
4757;DHT22;2392;52.578;13.426;2023-07-31T03:02:48;16.20;99.90
4757;DHT22;2392;52.578;13.426;2023-07-31T03:05:15;16.20;99.90
4757;DHT22;2392;52.578;13.426;2023-07-31T03:07:42;16.20;99.90
4757;DHT22;2392;52.578;13.426;2023-07-31T03:10:10;16.30;99.90
4757;DHT22;2392;52.578;13.426;2023-07-31T03:12:37;16.30;99.90
4757;DHT22;2392;52.578;13.426;2023-07-31T03:15:05;16.20;99.90
4757;DHT22;2392;52.578;13.426;2023-07-31T03:17:32;16.20;99.90
4757;DHT22;2392;52.578;13.426;2023-07-31T03:20:00;16.20;99.90
4757;DHT22;2392;52.578;13.426;2023-07-31T03:22:27;16.20;99.90
4757;DHT22;2392;52.578;13.426;2023-07-31T03:24:54;16.20;99.90
4757;DHT22;2392;52.578;13.426;2023-07-31T03:27:22;16.20;99.90
4757;DHT22;2392;52.578;13.426;2023-07-31T03:29:49;16.20;99.90
4757;DHT22;2392;52.578;13.426;2023-07-31T03:32:17;16.20;99.90
4757;DHT22;2392;52.578;13.426;2023-07-31T03:34:44;16.20;99.90
4757;DHT22;2392;52.578;13.426;2023-07-31T03:37:11;16.20;99.90
4757;DHT22;2392;52.578;13.426;2023-07-31T03:39:38;16.10;99.90
4757;DHT22;2392;52.578;13.426;2023-07-31T03:42:06;16.00;99.90
4757;DHT22;2392;52.578;13.426;2023-07-31T03:44:35;16.00;99.90
4757;DHT22;2392;52.578;13.426;2023-07-31T03:47:02;16.00;99.90
4757;DHT22;2392;52.578;13.426;2023-07-31T03:49:29;15.90;99.90
4757;DHT22;2392;52.578;13.426;2023-07-31T03:51:56;15.90;99.90
4757;DHT22;2392;52.578;13.426;2023-07-31T03:54:23;15.90;99.90
4757;DHT22;2392;52.578;13.426;2023-07-31T03:56:50;15.90;99.90
4757;DHT22;2392;52.578;13.426;2023-07-31T03:59:17;15.90;99.90
4757;DHT22;2392;52.578;13.426;2023-07-31T04:01:45;15.90;99.90
4757;DHT22;2392;52.578;13.426;2023-07-31T04:04:13;15.90;99.90
4757;DHT22;2392;52.578;13.426;2023-07-31T04:06:40;15.90;99.90
4757;DHT22;2392;52.578;13.426;2023-07-31T04:09:07;15.80;99.90
4757;DHT22;2392;52.578;13.426;2023-07-31T04:11:34;15.80;99.90
4757;DHT22;2392;52.578;13.426;2023-07-31T04:14:01;15.80;99.90
4757;DHT22;2392;52.578;13.426;2023-07-31T04:16:28;15.80;99.90
4757;DHT22;2392;52.578;13.426;2023-07-31T04:18:56;15.80;99.90
4757;DHT22;2392;52.578;13.426;2023-07-31T04:21:23;15.80;99.90
4757;DHT22;2392;52.578;13.426;2023-07-31T04:23:50;15.70;99.90
4757;DHT22;2392;52.578;13.426;2023-07-31T04:26:21;15.70;99.90
4757;DHT22;2392;52.578;13.426;2023-07-31T04:28:48;15.70;99.90
4757;DHT22;2392;52.578;13.426;2023-07-31T04:31:15;15.80;99.90
4757;DHT22;2392;52.578;13.426;2023-07-31T04:33:42;15.70;99.90
4757;DHT22;2392;52.578;13.426;2023-07-31T04:36:10;15.70;99.90
4757;DHT22;2392;52.578;13.426;2023-07-31T04:38:38;15.70;99.90
4757;DHT22;2392;52.578;13.426;2023-07-31T04:41:04;15.70;99.90
4757;DHT22;2392;52.578;13.426;2023-07-31T04:43:32;15.80;99.90
4757;DHT22;2392;52.578;13.426;2023-07-31T04:45:59;15.80;99.90
4757;DHT22;2392;52.578;13.426;2023-07-31T04:48:26;15.80;99.90
4757;DHT22;2392;52.578;13.426;2023-07-31T04:50:53;15.80;99.90
4757;DHT22;2392;52.578;13.426;2023-07-31T04:53:21;15.80;99.90
4757;DHT22;2392;52.578;13.426;2023-07-31T04:55:48;15.80;99.90
4757;DHT22;2392;52.578;13.426;2023-07-31T04:58:15;15.70;99.90
4757;DHT22;2392;52.578;13.426;2023-07-31T05:00:42;15.70;99.90
4757;DHT22;2392;52.578;13.426;2023-07-31T05:03:09;15.70;99.90
4757;DHT22;2392;52.578;13.426;2023-07-31T05:05:37;15.70;99.90
4757;DHT22;2392;52.578;13.426;2023-07-31T05:08:04;15.70;99.90
4757;DHT22;2392;52.578;13.426;2023-07-31T05:10:32;15.70;99.90
4757;DHT22;2392;52.578;13.426;2023-07-31T05:12:59;15.80;99.90
4757;DHT22;2392;52.578;13.426;2023-07-31T05:15:26;15.80;99.90
4757;DHT22;2392;52.578;13.426;2023-07-31T05:17:53;15.80;99.90
4757;DHT22;2392;52.578;13.426;2023-07-31T05:20:20;15.90;99.90
4757;DHT22;2392;52.578;13.426;2023-07-31T05:22:47;15.90;99.90
4757;DHT22;2392;52.578;13.426;2023-07-31T05:25:14;15.90;99.90
4757;DHT22;2392;52.578;13.426;2023-07-31T05:27:43;16.00;99.90
4757;DHT22;2392;52.578;13.426;2023-07-31T05:30:10;16.00;99.90
4757;DHT22;2392;52.578;13.426;2023-07-31T05:32:39;16.10;99.90
4757;DHT22;2392;52.578;13.426;2023-07-31T05:35:07;16.10;99.90
4757;DHT22;2392;52.578;13.426;2023-07-31T05:37:34;16.10;99.90
4757;DHT22;2392;52.578;13.426;2023-07-31T05:40:01;16.20;99.90
4757;DHT22;2392;52.578;13.426;2023-07-31T05:42:28;16.20;99.90
4757;DHT22;2392;52.578;13.426;2023-07-31T05:44:57;16.20;99.90
4757;DHT22;2392;52.578;13.426;2023-07-31T05:47:24;16.10;99.90
4757;DHT22;2392;52.578;13.426;2023-07-31T05:49:51;16.10;99.90
4757;DHT22;2392;52.578;13.426;2023-07-31T05:52:18;16.10;99.90
4757;DHT22;2392;52.578;13.426;2023-07-31T05:54:45;16.10;99.90
4757;DHT22;2392;52.578;13.426;2023-07-31T05:57:12;16.10;99.90
4757;DHT22;2392;52.578;13.426;2023-07-31T05:59:39;16.10;99.90
4757;DHT22;2392;52.578;13.426;2023-07-31T06:02:08;16.10;99.90
4757;DHT22;2392;52.578;13.426;2023-07-31T06:04:35;16.20;99.90
4757;DHT22;2392;52.578;13.426;2023-07-31T06:07:05;16.20;99.90
4757;DHT22;2392;52.578;13.426;2023-07-31T06:09:32;16.20;99.90
4757;DHT22;2392;52.578;13.426;2023-07-31T06:11:59;16.20;99.90
4757;DHT22;2392;52.578;13.426;2023-07-31T06:14:26;16.20;99.90
4757;DHT22;2392;52.578;13.426;2023-07-31T06:16:53;16.20;99.90
4757;DHT22;2392;52.578;13.426;2023-07-31T06:19:21;16.20;99.90
4757;DHT22;2392;52.578;13.426;2023-07-31T06:21:48;16.20;99.90
4757;DHT22;2392;52.578;13.426;2023-07-31T06:24:15;16.20;99.90
4757;DHT22;2392;52.578;13.426;2023-07-31T06:26:45;16.20;99.90
4757;DHT22;2392;52.578;13.426;2023-07-31T06:29:12;16.20;99.90
4757;DHT22;2392;52.578;13.426;2023-07-31T06:31:41;16.20;99.90
4757;DHT22;2392;52.578;13.426;2023-07-31T06:34:08;16.20;99.90
4757;DHT22;2392;52.578;13.426;2023-07-31T06:36:36;16.20;99.90
4757;DHT22;2392;52.578;13.426;2023-07-31T06:39:03;16.20;99.90
4757;DHT22;2392;52.578;13.426;2023-07-31T06:41:30;16.20;99.90
4757;DHT22;2392;52.578;13.426;2023-07-31T06:43:57;16.20;99.90
4757;DHT22;2392;52.578;13.426;2023-07-31T06:46:24;16.20;99.90
4757;DHT22;2392;52.578;13.426;2023-07-31T06:48:51;16.20;99.90
4757;DHT22;2392;52.578;13.426;2023-07-31T06:51:18;16.30;99.90
4757;DHT22;2392;52.578;13.426;2023-07-31T06:53:46;16.30;99.90
4757;DHT22;2392;52.578;13.426;2023-07-31T06:56:14;16.40;99.90
4757;DHT22;2392;52.578;13.426;2023-07-31T06:58:41;16.40;99.90
4757;DHT22;2392;52.578;13.426;2023-07-31T07:01:08;16.40;99.90
4757;DHT22;2392;52.578;13.426;2023-07-31T07:03:35;16.40;99.90
4757;DHT22;2392;52.578;13.426;2023-07-31T07:06:02;16.40;99.90
4757;DHT22;2392;52.578;13.426;2023-07-31T07:08:29;16.40;99.90
4757;DHT22;2392;52.578;13.426;2023-07-31T07:10:58;16.40;99.90
4757;DHT22;2392;52.578;13.426;2023-07-31T07:13:25;16.40;99.90
4757;DHT22;2392;52.578;13.426;2023-07-31T07:15:52;16.40;99.90
4757;DHT22;2392;52.578;13.426;2023-07-31T07:18:19;16.40;99.90
4757;DHT22;2392;52.578;13.426;2023-07-31T07:20:47;16.40;99.90
4757;DHT22;2392;52.578;13.426;2023-07-31T07:23:14;16.40;99.90
4757;DHT22;2392;52.578;13.426;2023-07-31T07:25:42;16.40;99.90
4757;DHT22;2392;52.578;13.426;2023-07-31T07:28:10;16.40;99.90
4757;DHT22;2392;52.578;13.426;2023-07-31T07:30:37;16.40;99.90
4757;DHT22;2392;52.578;13.426;2023-07-31T07:33:05;16.40;99.90
4757;DHT22;2392;52.578;13.426;2023-07-31T07:35:33;16.40;99.90
4757;DHT22;2392;52.578;13.426;2023-07-31T07:38:01;16.50;99.90
4757;DHT22;2392;52.578;13.426;2023-07-31T07:40:28;16.50;99.90
4757;DHT22;2392;52.578;13.426;2023-07-31T07:42:55;16.60;99.90
4757;DHT22;2392;52.578;13.426;2023-07-31T07:45:23;16.60;99.90
4757;DHT22;2392;52.578;13.426;2023-07-31T07:47:50;16.60;99.90
4757;DHT22;2392;52.578;13.426;2023-07-31T07:50:17;16.70;99.90
4757;DHT22;2392;52.578;13.426;2023-07-31T07:52:44;16.70;99.90
4757;DHT22;2392;52.578;13.426;2023-07-31T07:55:11;16.70;99.90
4757;DHT22;2392;52.578;13.426;2023-07-31T07:57:38;16.70;99.90
4757;DHT22;2392;52.578;13.426;2023-07-31T08:00:06;16.70;99.90
4757;DHT22;2392;52.578;13.426;2023-07-31T08:02:43;16.70;99.90
4757;DHT22;2392;52.578;13.426;2023-07-31T08:05:10;16.70;99.90
4757;DHT22;2392;52.578;13.426;2023-07-31T08:07:37;16.70;99.90
4757;DHT22;2392;52.578;13.426;2023-07-31T08:10:05;16.70;99.90
4757;DHT22;2392;52.578;13.426;2023-07-31T08:12:32;16.60;99.90
4757;DHT22;2392;52.578;13.426;2023-07-31T08:14:59;16.60;99.90
4757;DHT22;2392;52.578;13.426;2023-07-31T08:17:26;16.60;99.90
4757;DHT22;2392;52.578;13.426;2023-07-31T08:19:55;16.60;99.90
4757;DHT22;2392;52.578;13.426;2023-07-31T08:22:24;16.50;99.90
4757;DHT22;2392;52.578;13.426;2023-07-31T08:24:51;16.50;99.90
4757;DHT22;2392;52.578;13.426;2023-07-31T08:27:18;16.60;99.90
4757;DHT22;2392;52.578;13.426;2023-07-31T08:29:45;16.50;99.90
4757;DHT22;2392;52.578;13.426;2023-07-31T08:32:12;16.40;99.90
4757;DHT22;2392;52.578;13.426;2023-07-31T08:34:39;16.40;99.90
4757;DHT22;2392;52.578;13.426;2023-07-31T08:37:08;16.40;99.90
4757;DHT22;2392;52.578;13.426;2023-07-31T08:39:37;16.40;99.90
4757;DHT22;2392;52.578;13.426;2023-07-31T08:42:07;16.40;99.90
4757;DHT22;2392;52.578;13.426;2023-07-31T08:44:35;16.40;99.90
4757;DHT22;2392;52.578;13.426;2023-07-31T08:47:02;16.50;99.90
4757;DHT22;2392;52.578;13.426;2023-07-31T08:49:30;16.50;99.90
4757;DHT22;2392;52.578;13.426;2023-07-31T08:51:58;16.50;99.90
4757;DHT22;2392;52.578;13.426;2023-07-31T08:54:27;16.50;99.90
4757;DHT22;2392;52.578;13.426;2023-07-31T08:56:57;16.60;99.90
4757;DHT22;2392;52.578;13.426;2023-07-31T08:59:27;16.70;99.90
4757;DHT22;2392;52.578;13.426;2023-07-31T09:01:55;16.90;99.90
4757;DHT22;2392;52.578;13.426;2023-07-31T09:04:25;17.00;99.90
4757;DHT22;2392;52.578;13.426;2023-07-31T09:06:57;17.10;99.90
4757;DHT22;2392;52.578;13.426;2023-07-31T09:09:27;17.10;99.90
4757;DHT22;2392;52.578;13.426;2023-07-31T09:11:55;17.20;99.90
4757;DHT22;2392;52.578;13.426;2023-07-31T09:14:24;17.20;99.90
4757;DHT22;2392;52.578;13.426;2023-07-31T09:16:53;17.20;99.90
4757;DHT22;2392;52.578;13.426;2023-07-31T09:19:27;17.10;99.90
4757;DHT22;2392;52.578;13.426;2023-07-31T09:21:54;17.20;99.90
4757;DHT22;2392;52.578;13.426;2023-07-31T09:24:29;17.20;99.90
4757;DHT22;2392;52.578;13.426;2023-07-31T09:26:58;17.30;99.90
4757;DHT22;2392;52.578;13.426;2023-07-31T09:29:25;17.30;99.90
4757;DHT22;2392;52.578;13.426;2023-07-31T09:31:53;17.20;99.90
4757;DHT22;2392;52.578;13.426;2023-07-31T09:34:27;17.10;99.90
4757;DHT22;2392;52.578;13.426;2023-07-31T09:36:57;17.00;99.90
4757;DHT22;2392;52.578;13.426;2023-07-31T09:39:25;17.00;99.90
4757;DHT22;2392;52.578;13.426;2023-07-31T09:41:55;16.90;99.90
4757;DHT22;2392;52.578;13.426;2023-07-31T09:44:37;16.90;99.90
4757;DHT22;2392;52.578;13.426;2023-07-31T09:47:05;16.80;99.90
4757;DHT22;2392;52.578;13.426;2023-07-31T09:49:32;16.70;99.90
4757;DHT22;2392;52.578;13.426;2023-07-31T09:51:59;16.70;99.90
4757;DHT22;2392;52.578;13.426;2023-07-31T09:54:26;16.70;99.90
4757;DHT22;2392;52.578;13.426;2023-07-31T09:56:56;16.70;99.90
4757;DHT22;2392;52.578;13.426;2023-07-31T09:59:25;16.70;99.90
4757;DHT22;2392;52.578;13.426;2023-07-31T10:01:53;16.70;99.90
4757;DHT22;2392;52.578;13.426;2023-07-31T10:04:27;16.70;99.90
4757;DHT22;2392;52.578;13.426;2023-07-31T10:06:55;16.70;99.90
4757;DHT22;2392;52.578;13.426;2023-07-31T10:09:25;16.80;99.90
4757;DHT22;2392;52.578;13.426;2023-07-31T10:11:59;16.90;99.90
4757;DHT22;2392;52.578;13.426;2023-07-31T10:14:27;16.90;99.90
4757;DHT22;2392;52.578;13.426;2023-07-31T10:16:55;17.10;99.90
4757;DHT22;2392;52.578;13.426;2023-07-31T10:19:23;17.20;99.90
4757;DHT22;2392;52.578;13.426;2023-07-31T10:21:50;17.30;99.90
4757;DHT22;2392;52.578;13.426;2023-07-31T10:24:18;17.20;99.90
4757;DHT22;2392;52.578;13.426;2023-07-31T10:26:47;17.20;99.90
4757;DHT22;2392;52.578;13.426;2023-07-31T10:29:17;17.20;99.90
4757;DHT22;2392;52.578;13.426;2023-07-31T10:31:46;17.20;99.90
4757;DHT22;2392;52.578;13.426;2023-07-31T10:34:14;17.20;99.90
4757;DHT22;2392;52.578;13.426;2023-07-31T10:36:41;17.10;99.90
4757;DHT22;2392;52.578;13.426;2023-07-31T10:39:34;17.10;99.90
4757;DHT22;2392;52.578;13.426;2023-07-31T10:42:10;17.00;99.90
4757;DHT22;2392;52.578;13.426;2023-07-31T10:44:43;17.00;99.90
4757;DHT22;2392;52.578;13.426;2023-07-31T10:47:10;17.00;99.90
4757;DHT22;2392;52.578;13.426;2023-07-31T10:49:41;17.10;99.90
4757;DHT22;2392;52.578;13.426;2023-07-31T10:52:11;17.10;99.90
4757;DHT22;2392;52.578;13.426;2023-07-31T10:54:39;17.20;99.90
4757;DHT22;2392;52.578;13.426;2023-07-31T10:57:19;17.30;99.90
4757;DHT22;2392;52.578;13.426;2023-07-31T10:59:48;17.50;99.90
4757;DHT22;2392;52.578;13.426;2023-07-31T11:02:25;17.80;99.90
4757;DHT22;2392;52.578;13.426;2023-07-31T11:05:07;18.10;99.90
4757;DHT22;2392;52.578;13.426;2023-07-31T11:07:47;18.40;99.90
4757;DHT22;2392;52.578;13.426;2023-07-31T11:10:17;18.80;99.90
4757;DHT22;2392;52.578;13.426;2023-07-31T11:12:45;19.00;99.90
4757;DHT22;2392;52.578;13.426;2023-07-31T11:15:13;19.10;99.90
4757;DHT22;2392;52.578;13.426;2023-07-31T11:17:43;19.00;99.90
4757;DHT22;2392;52.578;13.426;2023-07-31T11:20:11;18.90;99.90
4757;DHT22;2392;52.578;13.426;2023-07-31T11:22:38;19.00;99.90
4757;DHT22;2392;52.578;13.426;2023-07-31T11:25:06;19.10;99.90
4757;DHT22;2392;52.578;13.426;2023-07-31T11:27:38;19.10;99.90
4757;DHT22;2392;52.578;13.426;2023-07-31T11:30:07;19.10;99.90
4757;DHT22;2392;52.578;13.426;2023-07-31T11:32:36;19.10;99.90
4757;DHT22;2392;52.578;13.426;2023-07-31T11:35:03;19.10;99.90
4757;DHT22;2392;52.578;13.426;2023-07-31T11:37:41;19.10;99.90
4757;DHT22;2392;52.578;13.426;2023-07-31T11:40:10;19.10;99.90
4757;DHT22;2392;52.578;13.426;2023-07-31T11:42:37;19.10;99.90
4757;DHT22;2392;52.578;13.426;2023-07-31T11:45:05;19.00;99.90
4757;DHT22;2392;52.578;13.426;2023-07-31T11:47:34;18.90;99.90
4757;DHT22;2392;52.578;13.426;2023-07-31T11:50:02;18.90;99.90
4757;DHT22;2392;52.578;13.426;2023-07-31T11:52:31;18.80;99.90
4757;DHT22;2392;52.578;13.426;2023-07-31T11:54:59;18.80;99.90
4757;DHT22;2392;52.578;13.426;2023-07-31T11:57:27;18.80;99.90
4757;DHT22;2392;52.578;13.426;2023-07-31T11:59:55;18.90;99.90
4757;DHT22;2392;52.578;13.426;2023-07-31T12:02:23;18.90;99.90
4757;DHT22;2392;52.578;13.426;2023-07-31T12:04:52;18.90;99.90
4757;DHT22;2392;52.578;13.426;2023-07-31T12:07:19;18.80;99.90
4757;DHT22;2392;52.578;13.426;2023-07-31T12:09:53;18.80;99.90
4757;DHT22;2392;52.578;13.426;2023-07-31T12:12:21;18.80;99.90
4757;DHT22;2392;52.578;13.426;2023-07-31T12:14:49;18.80;99.90
4757;DHT22;2392;52.578;13.426;2023-07-31T12:17:17;18.80;99.90
4757;DHT22;2392;52.578;13.426;2023-07-31T12:19:46;18.80;99.90
4757;DHT22;2392;52.578;13.426;2023-07-31T12:22:16;18.80;99.90
4757;DHT22;2392;52.578;13.426;2023-07-31T12:24:44;18.80;99.90
4757;DHT22;2392;52.578;13.426;2023-07-31T12:27:11;18.90;99.90
4757;DHT22;2392;52.578;13.426;2023-07-31T12:29:39;18.90;99.90
4757;DHT22;2392;52.578;13.426;2023-07-31T12:32:21;18.90;99.90
4757;DHT22;2392;52.578;13.426;2023-07-31T12:34:51;19.00;99.90
4757;DHT22;2392;52.578;13.426;2023-07-31T12:37:20;19.00;99.90
4757;DHT22;2392;52.578;13.426;2023-07-31T12:39:47;19.00;99.90
4757;DHT22;2392;52.578;13.426;2023-07-31T12:42:17;18.90;99.90
4757;DHT22;2392;52.578;13.426;2023-07-31T12:44:44;19.00;99.90
4757;DHT22;2392;52.578;13.426;2023-07-31T12:47:11;19.00;99.90
4757;DHT22;2392;52.578;13.426;2023-07-31T12:49:38;19.10;99.90
4757;DHT22;2392;52.578;13.426;2023-07-31T12:52:05;19.10;99.90
4757;DHT22;2392;52.578;13.426;2023-07-31T12:54:34;19.20;99.90
4757;DHT22;2392;52.578;13.426;2023-07-31T12:57:02;19.20;99.90
4757;DHT22;2392;52.578;13.426;2023-07-31T12:59:30;19.20;99.90
4757;DHT22;2392;52.578;13.426;2023-07-31T13:01:57;19.10;99.90
4757;DHT22;2392;52.578;13.426;2023-07-31T13:04:24;19.10;99.90
4757;DHT22;2392;52.578;13.426;2023-07-31T13:06:51;19.10;99.90
4757;DHT22;2392;52.578;13.426;2023-07-31T13:09:18;19.00;99.90
4757;DHT22;2392;52.578;13.426;2023-07-31T13:11:52;19.00;99.90
4757;DHT22;2392;52.578;13.426;2023-07-31T13:14:19;19.00;99.90
4757;DHT22;2392;52.578;13.426;2023-07-31T13:16:46;18.90;99.90
4757;DHT22;2392;52.578;13.426;2023-07-31T13:19:13;18.80;99.90
4757;DHT22;2392;52.578;13.426;2023-07-31T13:21:40;18.60;99.90
4757;DHT22;2392;52.578;13.426;2023-07-31T13:24:07;18.60;99.90
4757;DHT22;2392;52.578;13.426;2023-07-31T13:26:35;18.60;99.90
4757;DHT22;2392;52.578;13.426;2023-07-31T13:29:04;18.70;99.90
4757;DHT22;2392;52.578;13.426;2023-07-31T13:31:31;18.80;99.90
4757;DHT22;2392;52.578;13.426;2023-07-31T13:33:58;19.00;99.90
4757;DHT22;2392;52.578;13.426;2023-07-31T13:36:28;19.10;99.90
4757;DHT22;2392;52.578;13.426;2023-07-31T13:38:55;19.20;99.90
4757;DHT22;2392;52.578;13.426;2023-07-31T13:41:22;19.30;99.90
4757;DHT22;2392;52.578;13.426;2023-07-31T13:43:49;19.30;99.90
4757;DHT22;2392;52.578;13.426;2023-07-31T13:46:17;19.40;99.90
4757;DHT22;2392;52.578;13.426;2023-07-31T13:48:45;19.50;99.90
4757;DHT22;2392;52.578;13.426;2023-07-31T13:51:12;19.50;99.90
4757;DHT22;2392;52.578;13.426;2023-07-31T13:53:39;19.50;99.90
4757;DHT22;2392;52.578;13.426;2023-07-31T13:56:06;19.60;99.90
4757;DHT22;2392;52.578;13.426;2023-07-31T13:58:33;19.60;99.90
4757;DHT22;2392;52.578;13.426;2023-07-31T14:01:00;19.60;99.90
4757;DHT22;2392;52.578;13.426;2023-07-31T14:03:28;19.70;99.90
4757;DHT22;2392;52.578;13.426;2023-07-31T14:05:55;19.70;99.90
4757;DHT22;2392;52.578;13.426;2023-07-31T14:08:22;19.60;99.90
4757;DHT22;2392;52.578;13.426;2023-07-31T14:10:49;19.60;99.90
4757;DHT22;2392;52.578;13.426;2023-07-31T14:13:16;19.60;99.90
4757;DHT22;2392;52.578;13.426;2023-07-31T14:15:43;19.60;99.90
4757;DHT22;2392;52.578;13.426;2023-07-31T14:18:11;19.50;99.90
4757;DHT22;2392;52.578;13.426;2023-07-31T14:20:39;19.50;99.90
4757;DHT22;2392;52.578;13.426;2023-07-31T14:23:06;19.60;99.90
4757;DHT22;2392;52.578;13.426;2023-07-31T14:25:33;19.60;99.90
4757;DHT22;2392;52.578;13.426;2023-07-31T14:28:00;19.50;99.90
4757;DHT22;2392;52.578;13.426;2023-07-31T14:30:27;19.50;99.90
4757;DHT22;2392;52.578;13.426;2023-07-31T14:32:54;19.60;99.90
4757;DHT22;2392;52.578;13.426;2023-07-31T14:35:21;19.60;99.90
4757;DHT22;2392;52.578;13.426;2023-07-31T14:37:50;19.60;99.90
4757;DHT22;2392;52.578;13.426;2023-07-31T14:40:17;19.60;99.90
4757;DHT22;2392;52.578;13.426;2023-07-31T14:42:44;19.60;99.90
4757;DHT22;2392;52.578;13.426;2023-07-31T14:45:11;19.60;99.90
4757;DHT22;2392;52.578;13.426;2023-07-31T14:47:38;19.70;99.90
4757;DHT22;2392;52.578;13.426;2023-07-31T14:50:06;19.70;99.90
4757;DHT22;2392;52.578;13.426;2023-07-31T14:52:33;19.70;99.90
4757;DHT22;2392;52.578;13.426;2023-07-31T14:55:01;19.70;99.90
4757;DHT22;2392;52.578;13.426;2023-07-31T14:57:28;19.70;99.90
4757;DHT22;2392;52.578;13.426;2023-07-31T14:59:55;19.70;99.90
4757;DHT22;2392;52.578;13.426;2023-07-31T15:02:22;19.70;99.90
4757;DHT22;2392;52.578;13.426;2023-07-31T15:04:49;19.70;99.90
4757;DHT22;2392;52.578;13.426;2023-07-31T15:07:16;19.70;99.90
4757;DHT22;2392;52.578;13.426;2023-07-31T15:09:43;19.70;99.90
4757;DHT22;2392;52.578;13.426;2023-07-31T15:12:12;19.70;99.90
4757;DHT22;2392;52.578;13.426;2023-07-31T15:14:39;19.70;99.90
4757;DHT22;2392;52.578;13.426;2023-07-31T15:17:06;19.70;99.90
4757;DHT22;2392;52.578;13.426;2023-07-31T15:19:33;19.70;99.90
4757;DHT22;2392;52.578;13.426;2023-07-31T15:22:02;19.70;99.90
4757;DHT22;2392;52.578;13.426;2023-07-31T15:24:29;19.70;99.90
4757;DHT22;2392;52.578;13.426;2023-07-31T15:26:56;19.60;99.90
4757;DHT22;2392;52.578;13.426;2023-07-31T15:29:24;19.70;99.90
4757;DHT22;2392;52.578;13.426;2023-07-31T15:31:51;19.70;99.90
4757;DHT22;2392;52.578;13.426;2023-07-31T15:34:19;19.80;99.90
4757;DHT22;2392;52.578;13.426;2023-07-31T15:36:46;19.90;99.90
4757;DHT22;2392;52.578;13.426;2023-07-31T15:39:13;19.90;99.90
4757;DHT22;2392;52.578;13.426;2023-07-31T15:41:40;19.90;99.90
4757;DHT22;2392;52.578;13.426;2023-07-31T15:44:08;19.80;99.90
4757;DHT22;2392;52.578;13.426;2023-07-31T15:46:36;19.80;99.90
4757;DHT22;2392;52.578;13.426;2023-07-31T15:49:03;19.70;99.90
4757;DHT22;2392;52.578;13.426;2023-07-31T15:51:30;19.70;99.90